Ludington, MI (49431)

4:49 AM EDT on August 28, 2016 (GMT -0400)
Forest Hills | | Change Station

Elev 636 ft 43.96 °N, 86.43 °W | Updated 59 seconds ago

Overcast
Overcast
66.9 °F
Feels Like 66.9 °F
N
0.0
Wind Variable Wind from WNW

Today
High -- | Low -- °F
--% Chance of Precip.
Yesterday
High -- | Low -- °F
Precip. -- in
Pressure 30.12 in
Visibility 10.0 miles
Clouds Overcast 700 ft
Dew Point 65 °F
Humidity 96%
Rainfall 0.00 in
Snow Depth Not available.
7:05 AM 8:27 PM
Waning Crescent, 17% visible
METAR KLDM 280834Z AUTO 29003KT 10SM OVC007 19/19 A3012 RMK AO2 T01910187
Pressure 30.12 in
Visibility 10.0 miles
Clouds Overcast 700 ft
Dew Point 65 °F
Humidity 96%
Rainfall 0.00 in
Snow Depth Not available.
7:05 AM 8:27 PM
Waning Crescent, 17% visible
METAR KLDM 280834Z AUTO 29003KT 10SM OVC007 19/19 A3012 RMK AO2 T01910187

10-Day Weather Forecast

Almanac

Astronomy

Aug. 28, 2016 Rise Set
Actual Time
Civil Twilight
Nautical Twilight
Astronomical Twilight
Moon
Length of Visible Light
Length of Day
Tomorrow will be .
, % of the Moon is Illuminated

Today's Extremes

State Highs State Lows

Community

WunderPhotos

Upload Photos

1,935,540 photos uploaded!

WunderBlog® & News

Nearby

Air Quality

  Air Quality AQ Index Pollutant
Not available.

Snow Depth

Station Depth Elevation

Earthquake Activity

City Distance Mag. Time & Date
Minimum magnitude displayed is 2.5.

Coastal Water Temperatures

Place Temperature

Stations

Nearby Weather Stations

Station Location Temp. Windchill Dew Point Humidity Wind Precip. Elev Updated Type
                   

Watches & Warnings

There are currently no watches in effect.